Terminal Aerodrome Forecast
Issued by NWS

Home | Current Version | Previous Version | Graphics & Text | Print | Product List | Glossary On
Versions: 1 2 3 4 5 6 7 8 9 10 11 12 13 14 15 16 17
976
FTUS43 KBIS 081127
TAFJMS
TAF
KJMS 081127Z 0812/0912 34018G25KT P6SM OVC028
     FM081800 33024G32KT P6SM BKN040
     FM082300 33017G25KT P6SM SCT120
     FM090300 34010KT P6SM BKN100=

USA.gov is the U.S. government's official web portal to all federal, state and local government web resources and services.